createdAt,value
2018-05-06T00:00:05.443Z,91771.98
2018-05-06T00:02:38.848Z,91779.13
2018-05-06T00:05:11.289Z,91776.26
2018-05-06T00:07:43.753Z,91776.32
2018-05-06T00:10:16.014Z,91779.81
2018-05-06T00:12:50.895Z,91784.14
2018-05-06T00:15:23.354Z,91782.95
2018-05-06T00:17:58.811Z,91772.44
2018-05-06T00:20:31.267Z,91768.55
2018-05-06T00:23:06.826Z,91773.29
2018-05-06T00:25:39.269Z,91769.42
2018-05-06T00:28:14.774Z,91766.70
2018-05-06T00:30:47.168Z,91766.78
2018-05-06T00:33:22.766Z,91773.84
2018-05-06T00:35:55.172Z,91760.45
2018-05-06T00:38:28.545Z,91758.80
2018-05-06T00:41:00.801Z,91760.34
2018-05-06T00:43:33.135Z,91750.42
2018-05-06T00:46:05.574Z,91751.28
2018-05-06T00:48:37.956Z,91759.14
2018-05-06T00:51:10.415Z,91753.57
2018-05-06T00:53:46.047Z,91756.38
2018-05-06T00:56:18.558Z,91755.04
2018-05-06T00:58:54.084Z,91756.20
2018-05-06T01:01:26.527Z,91759.27
2018-05-06T01:04:02.297Z,91763.67
2018-05-06T01:06:34.727Z,91759.85
2018-05-06T01:09:10.417Z,91757.11
2018-05-06T01:11:42.897Z,91762.47
2018-05-06T01:14:15.219Z,91757.59
2018-05-06T01:16:47.655Z,91756.05
2018-05-06T01:19:20.166Z,91759.93
2018-05-06T01:21:52.641Z,91758.15
2018-05-06T01:24:31.110Z,91755.27
2018-05-06T01:27:03.448Z,91746.23
2018-05-06T01:29:38.894Z,91745.30
2018-05-06T01:32:11.337Z,91740.78
2018-05-06T01:34:46.957Z,91745.82
2018-05-06T01:37:19.371Z,91743.89
2018-05-06T01:39:51.798Z,91740.84
2018-05-06T01:42:24.117Z,91739.97
2018-05-06T01:44:59.617Z,91743.74
2018-05-06T01:47:32.027Z,91731.86
2018-05-06T01:50:04.498Z,91728.50
2018-05-06T01:52:36.846Z,91738.48
2018-05-06T01:55:12.476Z,91743.94
2018-05-06T01:57:45.026Z,91740.42
2018-05-06T02:00:24.009Z,91738.03
2018-05-06T02:02:56.488Z,91732.03
2018-05-06T02:05:28.908Z,91719.39
2018-05-06T02:08:01.383Z,91722.03
2018-05-06T02:10:33.691Z,91726.67
2018-05-06T02:13:06.134Z,91731.86
2018-05-06T02:15:41.606Z,91725.08
2018-05-06T02:18:14.069Z,91725.70
2018-05-06T02:20:49.727Z,91721.73
2018-05-06T02:23:22.055Z,91722.30
2018-05-06T02:25:57.556Z,91724.98
2018-05-06T02:28:29.930Z,91725.98
2018-05-06T02:31:05.367Z,91720.36
2018-05-06T02:33:37.830Z,91720.53
2018-05-06T02:36:13.496Z,91717.08
2018-05-06T02:38:45.889Z,91725.23
2018-05-06T02:41:21.215Z,91733.26
2018-05-06T02:43:53.646Z,91722.92
2018-05-06T02:46:29.129Z,91726.27
2018-05-06T02:49:01.531Z,91739.30
2018-05-06T02:51:36.952Z,91738.89
2018-05-06T02:54:09.382Z,91736.83
2018-05-06T02:56:44.765Z,91735.03
2018-05-06T02:59:17.128Z,91738.41
2018-05-06T03:01:55.655Z,91744.89
2018-05-06T03:04:27.881Z,91749.14
2018-05-06T03:07:03.476Z,91736.05
2018-05-06T03:09:35.846Z,91746.37
2018-05-06T03:12:11.282Z,91743.54
2018-05-06T03:14:43.663Z,91730.85
2018-05-06T03:17:19.406Z,91739.09
2018-05-06T03:19:51.863Z,91741.67
2018-05-06T03:22:24.396Z,91735.86
2018-05-06T03:24:56.790Z,91723.10
2018-05-06T03:27:32.279Z,91727.47
2018-05-06T03:30:04.809Z,91728.38
2018-05-06T03:32:40.410Z,91727.22
2018-05-06T03:35:12.864Z,91729.63
2018-05-06T03:37:48.289Z,91734.32
2018-05-06T03:40:20.619Z,91741.22
2018-05-06T03:42:56.343Z,91745.09
2018-05-06T03:45:28.792Z,91743.60
2018-05-06T03:48:04.476Z,91738.33
2018-05-06T03:50:36.689Z,91742.99
2018-05-06T03:53:09.158Z,91746.70
2018-05-06T03:55:41.573Z,91745.20
2018-05-06T03:58:29.332Z,91741.95
2018-05-06T04:01:01.779Z,91746.13
2018-05-06T04:03:37.458Z,91744.59
2018-05-06T04:06:09.969Z,91753.36
2018-05-06T04:08:52.031Z,91747.99
2018-05-06T04:11:24.291Z,91740.42
2018-05-06T04:13:59.857Z,91742.38
2018-05-06T04:16:32.311Z,91739.75
2018-05-06T04:19:07.979Z,91747.50
2018-05-06T04:21:40.294Z,91746.61
2018-05-06T04:24:13.025Z,91740.78
2018-05-06T04:26:45.384Z,91738.52
2018-05-06T04:29:17.691Z,91749.05
2018-05-06T04:31:50.146Z,91749.77
2018-05-06T04:34:25.594Z,91752.60
2018-05-06T04:36:57.990Z,91756.15
2018-05-06T04:39:33.713Z,91746.61
2018-05-06T04:42:05.960Z,91764.32
2018-05-06T04:44:41.305Z,91760.13
2018-05-06T04:47:13.785Z,91743.99
2018-05-06T04:49:46.166Z,91755.77
2018-05-06T04:52:18.497Z,91761.14
2018-05-06T04:54:54.091Z,91743.41
2018-05-06T04:57:26.570Z,91749.98
2018-05-06T04:59:58.968Z,91754.45
2018-05-06T05:02:31.405Z,91749.72
2018-05-06T05:05:09.987Z,91748.73
2018-05-06T05:07:42.364Z,91745.80
2018-05-06T05:10:14.932Z,91746.20
2018-05-06T05:12:47.267Z,91745.70
2018-05-06T05:15:19.822Z,91736.66
2018-05-06T05:17:52.302Z,91745.27
2018-05-06T05:20:24.922Z,91739.76
2018-05-06T05:22:57.438Z,91746.09
2018-05-06T05:25:29.816Z,91743.67
2018-05-06T05:28:02.248Z,91748.27
2018-05-06T05:30:37.756Z,91749.09
2018-05-06T05:33:10.162Z,91756.64
2018-05-06T05:35:45.584Z,91756.22
2018-05-06T05:38:17.984Z,91744.59
2018-05-06T05:40:50.480Z,91747.08
2018-05-06T05:43:22.966Z,91745.47
2018-05-06T05:45:58.750Z,91746.34
2018-05-06T05:48:31.158Z,91745.61
2018-05-06T05:51:06.582Z,91752.49
2018-05-06T05:53:38.926Z,91752.73
2018-05-06T05:56:14.691Z,91752.12
2018-05-06T05:58:47.090Z,91750.72
2018-05-06T06:01:22.831Z,91750.33
2018-05-06T06:03:55.282Z,91745.23
2018-05-06T06:06:30.919Z,91748.06
2018-05-06T06:09:03.295Z,91745.25
2018-05-06T06:11:35.997Z,91747.88
2018-05-06T06:14:08.445Z,91744.70
2018-05-06T06:16:40.825Z,91741.80
2018-05-06T06:19:13.273Z,91738.78
2018-05-06T06:21:45.563Z,91728.72
2018-05-06T06:24:18.029Z,91725.67
2018-05-06T06:26:50.445Z,91737.31
2018-05-06T06:29:22.879Z,91736.38
2018-05-06T06:31:58.367Z,91724.88
2018-05-06T06:34:30.976Z,91728.81
2018-05-06T06:37:03.395Z,91732.55
2018-05-06T06:39:35.804Z,91730.22
2018-05-06T06:42:08.102Z,91729.58
2018-05-06T06:44:40.511Z,91730.34
2018-05-06T06:47:12.866Z,91735.76
2018-05-06T06:49:45.220Z,91729.67
2018-05-06T06:52:20.788Z,91727.92
2018-05-06T06:54:53.280Z,91736.51
2018-05-06T06:57:25.677Z,91742.77
2018-05-06T06:59:58.013Z,91739.19
2018-05-06T07:02:30.350Z,91734.30
2018-05-06T07:05:02.784Z,91736.47
2018-05-06T07:07:35.369Z,91734.65
2018-05-06T07:10:07.728Z,91736.02
2018-05-06T07:12:40.120Z,91734.41
2018-05-06T07:15:12.485Z,91729.84
2018-05-06T07:17:44.801Z,91737.58
2018-05-06T07:20:17.025Z,91735.45
2018-05-06T07:22:49.314Z,91731.09
2018-05-06T07:25:21.700Z,91731.96
2018-05-06T07:27:57.640Z,91735.96
2018-05-06T07:30:30.153Z,91733.66
2018-05-06T07:33:05.758Z,91740.34
2018-05-06T07:35:38.187Z,91735.73
2018-05-06T07:38:10.788Z,91738.98
2018-05-06T07:40:43.171Z,91731.13
2018-05-06T07:43:18.635Z,91729.77
2018-05-06T07:45:51.017Z,91725.59
2018-05-06T07:48:23.531Z,91729.30
2018-05-06T07:50:55.901Z,91735.03
2018-05-06T07:53:31.526Z,91733.83
2018-05-06T07:56:03.982Z,91733.94
2018-05-06T07:58:36.806Z,91739.56
2018-05-06T08:01:09.281Z,91738.08
2018-05-06T08:03:41.771Z,91731.52
2018-05-06T08:06:14.260Z,91728.05
2018-05-06T08:08:53.124Z,91736.27
2018-05-06T08:11:25.459Z,91726.66
2018-05-06T08:14:00.928Z,91729.54
2018-05-06T08:16:33.285Z,91732.25
2018-05-06T08:19:08.748Z,91734.34
2018-05-06T08:21:41.185Z,91730.63
2018-05-06T08:24:16.563Z,91728.16
2018-05-06T08:26:48.936Z,91733.88
2018-05-06T08:29:21.608Z,91731.59
2018-05-06T08:31:57.237Z,91737.28
2018-05-06T08:34:32.691Z,91739.48
2018-05-06T08:37:06.249Z,91742.22
2018-05-06T08:39:38.643Z,91731.53
2018-05-06T08:42:11.150Z,91725.45
2018-05-06T08:44:46.875Z,91731.73
2018-05-06T08:47:19.268Z,91737.65
2018-05-06T08:49:55.062Z,91729.63
2018-05-06T08:52:27.473Z,91722.78
2018-05-06T08:55:03.173Z,91710.77
2018-05-06T08:57:36.539Z,91710.23
2018-05-06T09:00:09.024Z,91714.72
2018-05-06T09:02:42.452Z,91705.66
2018-05-06T09:05:14.913Z,91701.74
2018-05-06T09:07:48.294Z,91708.76
2018-05-06T09:10:22.097Z,91698.63
2018-05-06T09:12:54.490Z,91702.66
2018-05-06T09:15:30.093Z,91694.03
2018-05-06T09:18:02.382Z,91695.39
2018-05-06T09:20:38.577Z,91688.44
2018-05-06T09:23:10.938Z,91683.39
2018-05-06T09:25:43.653Z,91688.84
2018-05-06T09:28:16.106Z,91686.78
2018-05-06T09:30:51.765Z,91683.26
2018-05-06T09:33:24.192Z,91685.94
2018-05-06T09:35:56.736Z,91684.21
2018-05-06T09:38:29.989Z,91688.88
2018-05-06T09:41:05.548Z,91685.09
2018-05-06T09:43:37.949Z,91685.67
2018-05-06T09:46:11.298Z,91685.20
2018-05-06T09:48:43.811Z,91676.73
2018-05-06T09:51:16.251Z,91677.99
2018-05-06T09:53:49.637Z,91675.93
2018-05-06T09:56:22.029Z,91678.84
2018-05-06T09:58:57.547Z,91677.37
2018-05-06T10:01:30.721Z,91682.42
2018-05-06T10:04:03.130Z,91676.59
2018-05-06T10:06:35.626Z,91680.55
2018-05-06T10:09:08.104Z,91686.59
2018-05-06T10:11:43.885Z,91679.13
2018-05-06T10:14:21.982Z,91680.77
2018-05-06T10:16:57.819Z,91687.20
2018-05-06T10:19:30.298Z,91679.30
2018-05-06T10:22:05.937Z,91688.86
2018-05-06T10:24:38.249Z,91677.01
2018-05-06T10:27:11.754Z,91671.61
2018-05-06T10:29:44.309Z,91669.14
2018-05-06T10:32:20.039Z,91654.43
2018-05-06T10:34:52.471Z,91649.16
2018-05-06T10:37:24.994Z,91656.63
2018-05-06T10:39:58.405Z,91651.19
2018-05-06T10:42:31.011Z,91642.50
2018-05-06T10:45:03.401Z,91641.58
2018-05-06T10:47:39.124Z,91646.78
2018-05-06T10:50:11.506Z,91651.89
2018-05-06T10:52:44.131Z,91649.36
2018-05-06T10:55:19.386Z,91642.73
2018-05-06T10:57:52.856Z,91651.94
2018-05-06T11:00:25.246Z,91645.56
2018-05-06T11:03:00.806Z,91644.78
2018-05-06T11:05:33.262Z,91638.04
2018-05-06T11:08:05.844Z,91637.33
2018-05-06T11:10:38.421Z,91633.88
2018-05-06T11:13:20.378Z,91629.25
2018-05-06T11:15:52.707Z,91628.22
2018-05-06T11:18:25.333Z,91626.75
2018-05-06T11:20:57.639Z,91630.44
2018-05-06T11:23:33.333Z,91625.59
2018-05-06T11:26:05.971Z,91609.35
2018-05-06T11:28:41.568Z,91616.37
2018-05-06T11:31:14.962Z,91608.58
2018-05-06T11:33:50.811Z,91607.18
2018-05-06T11:36:25.071Z,91612.52
2018-05-06T11:39:00.490Z,91602.33
2018-05-06T11:41:32.908Z,91617.66
2018-05-06T11:44:08.593Z,91610.88
2018-05-06T11:46:41.015Z,91605.23
2018-05-06T11:49:13.555Z,91602.66
2018-05-06T11:51:46.165Z,91598.34
2018-05-06T11:54:22.080Z,91596.32
2018-05-06T11:56:54.513Z,91591.23
2018-05-06T11:59:30.207Z,91586.89
2018-05-06T12:02:02.779Z,91586.48
2018-05-06T12:04:38.640Z,91578.73
2018-05-06T12:07:11.284Z,91572.76
2018-05-06T12:09:46.873Z,91564.67
2018-05-06T12:12:19.325Z,91561.55
2018-05-06T12:14:55.193Z,91553.33
2018-05-06T12:17:27.810Z,91552.76
2018-05-06T12:20:00.242Z,91553.97
2018-05-06T12:22:32.767Z,91546.97
2018-05-06T12:25:05.394Z,91542.78
2018-05-06T12:27:38.759Z,91541.44
2018-05-06T12:30:14.271Z,91539.97
2018-05-06T12:32:46.763Z,91537.12
2018-05-06T12:35:22.370Z,91527.30
2018-05-06T12:37:54.848Z,91530.25
2018-05-06T12:40:30.601Z,91526.52
2018-05-06T12:43:03.017Z,91522.48
2018-05-06T12:45:38.735Z,91514.44
2018-05-06T12:48:11.322Z,91521.52
2018-05-06T12:50:47.160Z,91528.39
2018-05-06T12:53:19.498Z,91502.50
2018-05-06T12:55:52.835Z,91503.66
2018-05-06T12:58:25.243Z,91503.55
2018-05-06T13:00:58.814Z,91509.94
2018-05-06T13:03:31.217Z,91510.94
2018-05-06T13:06:03.942Z,91522.98
2018-05-06T13:08:36.374Z,91519.73
2018-05-06T13:11:12.138Z,91525.42
2018-05-06T13:13:44.659Z,91527.23
2018-05-06T13:16:23.796Z,91538.47
2018-05-06T13:18:56.200Z,91540.13
2018-05-06T13:21:32.829Z,91557.95
2018-05-06T13:24:05.323Z,91582.11
2018-05-06T13:26:38.433Z,91617.14
2018-05-06T13:29:10.773Z,91638.55
2018-05-06T13:31:47.221Z,91658.52
2018-05-06T13:34:19.856Z,91672.41
2018-05-06T13:36:55.474Z,91681.81
2018-05-06T13:39:28.546Z,91692.61
2018-05-06T13:42:04.102Z,91687.27
2018-05-06T13:44:36.481Z,91693.86
2018-05-06T13:47:09.052Z,91682.95
2018-05-06T13:49:41.456Z,91679.47
2018-05-06T13:52:14.013Z,91668.44
2018-05-06T13:54:46.500Z,91667.10
2018-05-06T13:57:22.009Z,91673.45
2018-05-06T13:59:54.561Z,91678.41
2018-05-06T14:02:27.016Z,91693.20
2018-05-06T14:04:59.525Z,91682.55
2018-05-06T14:07:31.866Z,91694.13
2018-05-06T14:10:04.374Z,91702.79
2018-05-06T14:12:40.167Z,91700.03
2018-05-06T14:15:12.535Z,91702.22
2018-05-06T14:17:48.303Z,91692.31
2018-05-06T14:20:20.704Z,91689.59
2018-05-06T14:22:53.124Z,91685.59
2018-05-06T14:25:25.534Z,91681.03
2018-05-06T14:28:01.203Z,91688.11
2018-05-06T14:30:33.532Z,91683.14
2018-05-06T14:33:09.033Z,91691.98
2018-05-06T14:35:41.455Z,91696.94
2018-05-06T14:38:16.913Z,91703.83
2018-05-06T14:40:49.199Z,91698.02
2018-05-06T14:43:24.672Z,91704.18
2018-05-06T14:45:57.085Z,91696.47
2018-05-06T14:48:29.363Z,91698.57
2018-05-06T14:51:01.655Z,91711.70
2018-05-06T14:53:27.962Z,91720.81
2018-05-06T14:55:57.380Z,91726.29
2018-05-06T14:58:23.663Z,91729.44
2018-05-06T15:00:49.983Z,91722.28
2018-05-06T15:03:16.291Z,91728.16
2018-05-06T15:05:42.587Z,91727.38
2018-05-06T15:08:08.919Z,91736.06
2018-05-06T15:10:35.343Z,91735.44
2018-05-06T15:13:01.635Z,91715.09
2018-05-06T15:15:27.936Z,91710.27
2018-05-06T15:17:57.645Z,91711.43
2018-05-06T15:20:23.922Z,91716.48
2018-05-06T15:22:50.208Z,91716.24
2018-05-06T15:25:19.738Z,91716.28
2018-05-06T15:27:46.051Z,91708.77
2018-05-06T15:30:12.367Z,91710.19
2018-05-06T15:32:38.730Z,91704.11
2018-05-06T15:35:04.998Z,91706.31
2018-05-06T15:37:31.269Z,91711.05
2018-05-06T15:39:57.685Z,91710.72
2018-05-06T15:42:23.999Z,91711.57
2018-05-06T15:44:50.282Z,91719.19
2018-05-06T15:47:19.800Z,91720.57
2018-05-06T15:49:46.139Z,91721.16
2018-05-06T15:52:12.447Z,91717.92
2018-05-06T15:54:41.854Z,91718.94
2018-05-06T15:57:08.135Z,91713.63
2018-05-06T15:59:34.444Z,91714.39
2018-05-06T16:02:10.059Z,91715.13
2018-05-06T16:04:36.371Z,91710.53
2018-05-06T16:07:02.652Z,91716.14
2018-05-06T16:09:28.982Z,91712.80
2018-05-06T16:11:55.381Z,91717.69
2018-05-06T16:14:21.636Z,91721.23
2018-05-06T16:16:48.015Z,91714.34
2018-05-06T16:19:14.827Z,91712.41
2018-05-06T16:21:41.176Z,91703.36
2018-05-06T16:24:10.739Z,91705.25
2018-05-06T16:26:37.062Z,91710.98
2018-05-06T16:29:03.380Z,91715.84
2018-05-06T16:31:29.765Z,91718.85
2018-05-06T16:33:56.071Z,91719.94
2018-05-06T16:36:22.362Z,91713.57
2018-05-06T16:38:48.719Z,91723.76
2018-05-06T16:41:14.999Z,91731.23
2018-05-06T16:43:41.343Z,91724.03
2018-05-06T16:46:10.775Z,91726.84
2018-05-06T16:48:37.076Z,91737.42
2018-05-06T16:51:03.384Z,91743.88
2018-05-06T16:53:29.728Z,91751.31
2018-05-06T16:55:56.042Z,91757.38
2018-05-06T16:58:22.345Z,91752.41
2018-05-06T17:00:51.847Z,91757.73
2018-05-06T17:03:18.284Z,91756.02
2018-05-06T17:05:45.606Z,91751.70
2018-05-06T17:08:12.103Z,91756.20
2018-05-06T17:10:38.417Z,91762.81
2018-05-06T17:13:04.696Z,91768.14
2018-05-06T17:15:31.093Z,91773.66
2018-05-06T17:17:57.396Z,91774.07
2018-05-06T17:20:23.752Z,91776.69
2018-05-06T17:22:53.447Z,91777.30
2018-05-06T17:25:19.787Z,91769.74
2018-05-06T17:27:46.148Z,91768.77
2018-05-06T17:30:12.555Z,91780.67
2018-05-06T17:32:38.819Z,91792.27
2018-05-06T17:35:05.120Z,91795.34
2018-05-06T17:37:34.503Z,91795.20
2018-05-06T17:40:00.806Z,91795.38
2018-05-06T17:42:27.126Z,91804.62
2018-05-06T17:44:56.556Z,91802.66
2018-05-06T17:47:22.842Z,91814.20
2018-05-06T17:49:49.195Z,91816.48
2018-05-06T17:52:15.587Z,91821.23
2018-05-06T17:54:41.887Z,91826.06
2018-05-06T17:57:08.224Z,91827.64
2018-05-06T17:59:37.933Z,91834.36
2018-05-06T18:02:04.331Z,91834.80
2018-05-06T18:04:30.670Z,91836.06
2018-05-06T18:07:00.300Z,91841.64
2018-05-06T18:09:26.572Z,91842.30
2018-05-06T18:11:59.215Z,91845.63
2018-05-06T18:14:28.607Z,91845.09
2018-05-06T18:16:54.867Z,91849.00
2018-05-06T18:19:21.150Z,91851.02
2018-05-06T18:21:47.558Z,91850.67
2018-05-06T18:24:13.838Z,91846.69
2018-05-06T18:26:40.111Z,91846.06
2018-05-06T18:29:06.427Z,91854.05
2018-05-06T18:31:32.712Z,91864.98
2018-05-06T18:33:58.985Z,91860.50
2018-05-06T18:36:25.360Z,91864.19
2018-05-06T18:38:51.655Z,91868.32
2018-05-06T18:41:18.007Z,91866.25
2018-05-06T18:43:47.356Z,91886.25
2018-05-06T18:46:13.659Z,91883.58
2018-05-06T18:48:39.939Z,91890.22
2018-05-06T18:54:04.104Z,91888.98
2018-05-06T18:56:30.528Z,91881.17
2018-05-06T18:58:56.852Z,91876.97
2018-05-06T19:01:23.182Z,91876.53
2018-05-06T19:03:52.746Z,91875.81
2018-05-06T19:06:19.113Z,91874.42
2018-05-06T19:08:45.464Z,91860.61
2018-05-06T19:11:11.848Z,91860.22
2018-05-06T19:13:38.178Z,91857.98
2018-05-06T19:16:04.496Z,91856.48
2018-05-06T19:18:34.125Z,91859.09
2018-05-06T19:21:00.474Z,91854.52
2018-05-06T19:23:30.113Z,91850.86
2018-05-06T19:25:56.456Z,91861.29
2018-05-06T19:28:22.791Z,91860.47
2018-05-06T19:30:49.114Z,91875.11
2018-05-06T19:33:15.519Z,91874.67
2018-05-06T19:35:41.848Z,91881.61
2018-05-06T19:38:08.168Z,91877.54
2018-05-06T19:40:37.862Z,91869.37
2018-05-06T19:43:04.193Z,91869.94
2018-05-06T19:45:30.545Z,91873.09
2018-05-06T19:47:56.898Z,91868.39
2018-05-06T19:50:23.259Z,91872.86
2018-05-06T19:52:49.604Z,91869.04
2018-05-06T19:55:18.984Z,91874.55
2018-05-06T19:57:45.309Z,91877.61
2018-05-06T20:00:11.649Z,91875.25
2018-05-06T20:02:41.328Z,91870.56
2018-05-06T20:05:07.653Z,91865.23
2018-05-06T20:07:33.992Z,91860.91
2018-05-06T20:10:09.515Z,91865.75
2018-05-06T20:12:41.904Z,91866.43
2018-05-06T20:15:17.695Z,91876.48
2018-05-06T20:17:50.125Z,91876.27
2018-05-06T20:20:25.807Z,91873.49
2018-05-06T20:22:58.116Z,91881.48
2018-05-06T20:35:44.166Z,91873.63
2018-05-06T20:47:50.512Z,91881.62
2018-05-06T20:50:22.999Z,91888.68
2018-05-06T20:52:55.539Z,91870.97
2018-05-06T20:55:30.490Z,91879.45
2018-05-06T20:58:06.242Z,91887.39
2018-05-06T21:00:38.769Z,91877.09
2018-05-06T21:03:11.141Z,91881.20
2018-05-06T21:05:43.597Z,91886.38
2018-05-06T21:08:16.103Z,91888.61
2018-05-06T21:10:48.534Z,91890.34
2018-05-06T21:13:24.170Z,91897.69
2018-05-06T21:15:56.634Z,91898.41
2018-05-06T21:18:32.193Z,91900.96
2018-05-06T21:21:04.670Z,91902.02
2018-05-06T21:23:37.063Z,91909.52
2018-05-06T21:26:09.651Z,91909.22
2018-05-06T21:28:45.279Z,91903.98
2018-05-06T21:31:17.758Z,91899.71
2018-05-06T21:33:53.295Z,91896.70
2018-05-06T21:36:28.200Z,91904.04
2018-05-06T21:39:00.614Z,91898.61
2018-05-06T21:41:32.955Z,91901.00
2018-05-06T21:44:05.509Z,91893.47
2018-05-06T21:46:37.988Z,91895.45
2018-05-06T21:49:10.557Z,91895.16
2018-05-06T21:51:43.004Z,91883.77
2018-05-06T21:54:15.360Z,91871.23
2018-05-06T21:56:47.743Z,91870.42
2018-05-06T21:59:21.048Z,91871.72
2018-05-06T22:01:53.369Z,91865.00
2018-05-06T22:04:29.176Z,91872.41
2018-05-06T22:07:01.515Z,91866.23
2018-05-06T22:09:33.901Z,91858.63
2018-05-06T22:12:06.123Z,91855.63
2018-05-06T22:14:41.608Z,91847.84
2018-05-06T22:17:14.050Z,91846.20
2018-05-06T22:19:49.465Z,91846.29
2018-05-06T22:22:21.956Z,91848.38
2018-05-06T22:24:54.489Z,91850.88
2018-05-06T22:27:30.133Z,91860.29
2018-05-06T22:30:05.824Z,91860.84
2018-05-06T22:32:38.120Z,91853.09
2018-05-06T22:35:13.655Z,91850.42
2018-05-06T22:37:46.171Z,91847.44
2018-05-06T22:40:18.675Z,91849.62
2018-05-06T22:42:51.177Z,91842.12
2018-05-06T22:45:23.658Z,91841.61
2018-05-06T22:47:55.912Z,91842.97
2018-05-06T22:50:31.509Z,91838.81
2018-05-06T22:53:03.786Z,91841.56
2018-05-06T22:55:36.156Z,91835.31
2018-05-06T22:58:08.651Z,91825.98
2018-05-06T23:00:44.391Z,91825.47
2018-05-06T23:03:16.946Z,91817.05
2018-05-06T23:05:52.599Z,91821.88
2018-05-06T23:08:25.080Z,91814.72
2018-05-06T23:10:57.459Z,91818.30
2018-05-06T23:13:29.733Z,91814.31
2018-05-06T23:16:02.060Z,91814.21
2018-05-06T23:18:34.480Z,91809.94
2018-05-06T23:21:06.812Z,91810.27
2018-05-06T23:23:39.242Z,91804.25
2018-05-06T23:26:14.672Z,91807.02
2018-05-06T23:28:50.305Z,91809.39
2018-05-06T23:31:22.831Z,91805.17
2018-05-06T23:33:55.255Z,91799.75
2018-05-06T23:36:27.622Z,91798.43
2018-05-06T23:39:00.095Z,91795.10
2018-05-06T23:41:32.481Z,91797.59
2018-05-06T23:44:04.846Z,91792.03
2018-05-06T23:46:37.239Z,91795.31
2018-05-06T23:49:09.720Z,91790.44
2018-05-06T23:51:42.232Z,91781.73
2018-05-06T23:54:14.599Z,91786.57
2018-05-06T23:56:50.227Z,91791.33
2018-05-06T23:59:22.583Z,91783.42
